createdAt,value
2023-09-06T00:03:01.923Z,18.97
2023-09-06T00:06:05.823Z,19.06
2023-09-06T00:09:08.185Z,19.07
2023-09-06T00:12:10.921Z,19.15
2023-09-06T00:15:16.451Z,19.11
2023-09-06T00:18:19.107Z,18.94
2023-09-06T00:21:23.223Z,18.89
2023-09-06T00:24:25.904Z,18.86
2023-09-06T00:27:29.502Z,18.82
2023-09-06T00:30:32.663Z,18.72
2023-09-06T00:33:36.905Z,18.68
2023-09-06T00:36:39.715Z,18.60
2023-09-06T00:39:42.696Z,18.61
2023-09-06T00:43:01.199Z,18.58
2023-09-06T00:46:08.871Z,18.53
2023-09-06T00:49:11.958Z,18.51
2023-09-06T00:52:17.732Z,18.37
2023-09-06T00:55:21.647Z,18.35
2023-09-06T00:58:24.195Z,18.28
2023-09-06T01:01:26.992Z,18.22
2023-09-06T01:04:29.512Z,18.22
2023-09-06T01:07:38.202Z,18.17
2023-09-06T01:10:40.610Z,18.21
2023-09-06T01:13:43.292Z,18.17
2023-09-06T01:16:48.604Z,18.15
2023-09-06T01:20:25.272Z,18.26
2023-09-06T01:23:31.749Z,18.22
2023-09-06T01:26:35.495Z,18.26
2023-09-06T01:29:37.882Z,18.09
2023-09-06T01:32:42.143Z,18.04
2023-09-06T01:35:44.771Z,18.01
2023-09-06T01:38:47.511Z,17.91
2023-09-06T01:41:50.917Z,17.93
2023-09-06T01:44:55.168Z,17.96
2023-09-06T01:47:57.628Z,17.81
2023-09-06T01:51:00.321Z,17.69
2023-09-06T01:54:05.593Z,17.62
2023-09-06T01:57:09.587Z,17.54
2023-09-06T02:00:27.722Z,17.56
2023-09-06T02:03:30.454Z,17.45
2023-09-06T02:06:32.979Z,17.44
2023-09-06T02:09:35.646Z,17.41
2023-09-06T02:12:39.391Z,17.39
2023-09-06T02:15:42.652Z,17.31
2023-09-06T02:18:45.217Z,17.24
2023-09-06T02:21:48.060Z,17.29
2023-09-06T02:24:50.436Z,17.35
2023-09-06T02:27:53.996Z,17.26
2023-09-06T02:30:56.458Z,17.16
2023-09-06T02:33:59.164Z,17.18
2023-09-06T02:37:02.054Z,17.13
2023-09-06T02:40:10.373Z,17.07
2023-09-06T02:43:14.917Z,17.04
2023-09-06T02:46:17.859Z,17.07
2023-09-06T02:49:20.246Z,16.99
2023-09-06T02:52:31.675Z,16.79
2023-09-06T02:55:36.599Z,16.70
2023-09-06T02:58:40.364Z,16.74
2023-09-06T03:01:46.389Z,16.83
2023-09-06T03:04:56.112Z,16.74
2023-09-06T03:07:58.935Z,16.77
2023-09-06T03:11:01.999Z,16.74
2023-09-06T03:14:05.788Z,16.74
2023-09-06T03:17:09.695Z,16.77
2023-09-06T03:20:32.664Z,16.68
2023-09-06T03:23:37.091Z,16.73
2023-09-06T03:26:44.868Z,16.64
2023-09-06T03:29:52.714Z,16.75
2023-09-06T03:32:55.980Z,16.65
2023-09-06T03:35:58.911Z,16.60
2023-09-06T03:39:02.163Z,16.61
2023-09-06T03:42:09.677Z,16.60
2023-09-06T03:45:16.715Z,16.53
2023-09-06T03:48:22.126Z,16.55
2023-09-06T03:51:25.786Z,16.50
2023-09-06T03:54:28.565Z,16.55
2023-09-06T03:57:30.885Z,16.48
2023-09-06T04:00:33.914Z,16.56
2023-09-06T04:03:39.730Z,16.57
2023-09-06T04:06:45.658Z,16.58
2023-09-06T04:09:48.781Z,16.59
2023-09-06T04:12:52.478Z,16.64
2023-09-06T04:15:55.702Z,16.67
2023-09-06T04:18:59.614Z,16.66
2023-09-06T04:22:03.169Z,16.60
2023-09-06T04:25:07.872Z,16.53
2023-09-06T04:28:14.853Z,16.48
2023-09-06T04:31:20.225Z,16.48
2023-09-06T04:34:23.588Z,16.41
2023-09-06T04:37:26.069Z,16.48
2023-09-06T04:40:30.509Z,16.54
2023-09-06T04:43:33.332Z,16.51
2023-09-06T04:46:36.237Z,16.54
2023-09-06T04:49:40.594Z,16.57
2023-09-06T04:52:49.872Z,16.62
2023-09-06T04:55:54.501Z,16.73
2023-09-06T04:58:57.620Z,16.72
2023-09-06T05:05:03.076Z,16.76
2023-09-06T05:08:06.462Z,16.75
2023-09-06T05:11:09.178Z,16.73
2023-09-06T05:14:12.098Z,16.71
2023-09-06T05:17:16.548Z,16.72
2023-09-06T05:20:26.560Z,16.74
2023-09-06T05:23:29.570Z,16.85
2023-09-06T05:26:34.790Z,16.90
2023-09-06T05:29:38.069Z,17.01
2023-09-06T05:32:40.627Z,17.05
2023-09-06T05:35:44.837Z,17.00
2023-09-06T05:38:47.600Z,17.13
2023-09-06T05:41:51.947Z,17.16
2023-09-06T05:44:54.411Z,17.17
2023-09-06T05:47:57.786Z,17.29
2023-09-06T05:51:01.067Z,17.33
2023-09-06T05:54:04.242Z,17.41
2023-09-06T05:57:07.645Z,17.51
2023-09-06T06:00:16.882Z,18.00
2023-09-06T06:03:21.238Z,18.46
2023-09-06T06:06:23.947Z,18.90
2023-09-06T06:09:29.521Z,19.16
2023-09-06T06:12:34.009Z,19.35
2023-09-06T06:15:36.713Z,19.43
2023-09-06T06:18:39.177Z,19.66
2023-09-06T06:21:42.024Z,19.72
2023-09-06T06:24:47.322Z,19.86
2023-09-06T06:27:53.222Z,20.03
2023-09-06T06:30:55.805Z,20.15
2023-09-06T06:34:00.575Z,20.30
2023-09-06T06:37:02.972Z,20.52
2023-09-06T06:40:06.582Z,20.87
2023-09-06T06:43:09.025Z,20.93
2023-09-06T06:46:25.569Z,21.12
2023-09-06T06:49:28.498Z,21.23
2023-09-06T06:52:36.272Z,21.19
2023-09-06T06:55:39.376Z,21.42
2023-09-06T06:58:42.190Z,21.57
2023-09-06T07:01:44.639Z,21.61
2023-09-06T07:04:47.559Z,21.77
2023-09-06T07:07:50.063Z,21.49
2023-09-06T07:10:52.975Z,21.33
2023-09-06T07:13:55.485Z,21.44
2023-09-06T07:17:00.189Z,21.36
2023-09-06T07:20:03.509Z,21.41
2023-09-06T07:23:06.311Z,21.45
2023-09-06T07:26:08.927Z,21.83
2023-09-06T07:29:11.853Z,21.92
2023-09-06T07:32:14.511Z,22.08
2023-09-06T07:35:17.334Z,22.08
2023-09-06T07:38:19.764Z,21.98
2023-09-06T07:41:23.214Z,22.18
2023-09-06T07:44:25.736Z,22.27
2023-09-06T07:47:28.666Z,22.02
2023-09-06T07:50:32.738Z,22.04
2023-09-06T07:53:35.674Z,22.43
2023-09-06T07:56:39.456Z,22.70
2023-09-06T07:59:42.227Z,22.65
2023-09-06T08:02:44.657Z,22.77
2023-09-06T08:05:48.084Z,22.97
2023-09-06T08:08:50.783Z,22.88
2023-09-06T08:11:53.669Z,22.98
2023-09-06T08:14:56.191Z,23.14
2023-09-06T08:18:00.194Z,23.21
2023-09-06T08:21:02.936Z,23.32
2023-09-06T08:24:05.952Z,23.55
2023-09-06T08:27:08.479Z,23.67
2023-09-06T08:30:14.081Z,23.61
2023-09-06T08:33:16.755Z,23.65
2023-09-06T08:36:19.715Z,23.77
2023-09-06T08:39:22.359Z,23.85
2023-09-06T08:42:28.814Z,24.08
2023-09-06T08:45:31.746Z,24.08
2023-09-06T08:48:35.113Z,24.45
2023-09-06T08:51:38.954Z,24.64
2023-09-06T08:54:45.469Z,24.65
2023-09-06T08:57:48.587Z,24.83
2023-09-06T09:00:51.652Z,24.94
2023-09-06T09:03:55.008Z,24.65
2023-09-06T09:06:59.186Z,24.73
2023-09-06T09:10:08.532Z,24.70
2023-09-06T09:13:13.469Z,25.12
2023-09-06T09:16:17.792Z,25.18
2023-09-06T09:19:22.718Z,25.36
2023-09-06T09:22:31.570Z,25.49
2023-09-06T09:25:34.575Z,25.51
2023-09-06T09:28:37.040Z,25.82
2023-09-06T09:31:41.384Z,26.03
2023-09-06T09:34:46.186Z,26.11
2023-09-06T09:37:52.629Z,26.22
2023-09-06T09:41:07.812Z,26.33
2023-09-06T09:44:15.297Z,26.29
2023-09-06T09:47:39.784Z,26.36
2023-09-06T09:50:42.816Z,26.26
2023-09-06T09:53:46.197Z,26.18
2023-09-06T09:57:08.046Z,26.20
2023-09-06T10:00:13.664Z,26.64
2023-09-06T10:03:16.809Z,26.69
2023-09-06T10:06:21.046Z,26.98
2023-09-06T10:09:23.901Z,27.18
2023-09-06T10:12:29.219Z,26.99
2023-09-06T10:15:33.995Z,26.62
2023-09-06T10:18:38.304Z,27.21
2023-09-06T10:21:43.543Z,27.23
2023-09-06T10:24:52.735Z,27.21
2023-09-06T10:28:00.589Z,27.47
2023-09-06T10:31:10.074Z,27.82
2023-09-06T10:34:14.624Z,27.74
2023-09-06T10:37:17.479Z,27.84
2023-09-06T10:40:20.168Z,27.96
2023-09-06T10:43:32.687Z,27.74
2023-09-06T10:46:38.594Z,28.01
2023-09-06T10:50:13.392Z,28.10
2023-09-06T10:53:20.202Z,28.02
2023-09-06T10:56:29.357Z,28.11
2023-09-06T10:59:32.539Z,28.46
2023-09-06T11:02:36.528Z,28.38
2023-09-06T11:05:41.279Z,28.45
2023-09-06T11:08:44.110Z,28.36
2023-09-06T11:11:52.439Z,28.31
2023-09-06T11:14:56.062Z,28.17
2023-09-06T11:18:01.507Z,28.35
2023-09-06T11:21:05.956Z,28.69
2023-09-06T11:24:08.479Z,28.93
2023-09-06T11:27:26.039Z,28.85
2023-09-06T11:30:32.769Z,28.79
2023-09-06T11:33:37.908Z,28.63
2023-09-06T11:36:40.576Z,28.91
2023-09-06T11:39:47.417Z,29.02
2023-09-06T11:42:55.473Z,29.28
2023-09-06T11:46:05.031Z,28.71
2023-09-06T11:49:08.037Z,29.13
2023-09-06T11:52:14.711Z,29.27
2023-09-06T11:55:18.809Z,29.05
2023-09-06T11:58:23.039Z,28.94
2023-09-06T12:01:26.101Z,29.49
2023-09-06T12:04:30.998Z,29.30
2023-09-06T12:07:33.673Z,29.32
2023-09-06T12:10:36.704Z,29.09
2023-09-06T12:13:39.832Z,29.34
2023-09-06T12:16:43.055Z,29.26
2023-09-06T12:19:45.938Z,29.39
2023-09-06T12:22:48.662Z,29.52
2023-09-06T12:25:51.101Z,28.80
2023-09-06T12:28:53.793Z,29.25
2023-09-06T12:31:56.348Z,29.77
2023-09-06T12:34:59.177Z,29.15
2023-09-06T12:38:01.500Z,29.49
2023-09-06T12:41:06.133Z,29.81
2023-09-06T12:44:08.612Z,30.02
2023-09-06T12:47:17.706Z,29.44
2023-09-06T12:50:21.161Z,29.28
2023-09-06T12:53:24.388Z,29.61
2023-09-06T12:56:26.900Z,29.62
2023-09-06T12:59:29.668Z,29.86
2023-09-06T13:02:34.889Z,30.11
2023-09-06T13:05:41.366Z,29.85
2023-09-06T13:08:45.740Z,29.50
2023-09-06T13:11:48.600Z,29.63
2023-09-06T13:14:51.184Z,29.60
2023-09-06T13:17:53.983Z,29.84
2023-09-06T13:20:58.294Z,29.29
2023-09-06T13:24:05.246Z,29.73
2023-09-06T13:27:08.133Z,29.82
2023-09-06T13:30:11.698Z,29.67
2023-09-06T13:33:14.161Z,29.61
2023-09-06T13:36:17.844Z,29.50
2023-09-06T13:39:22.118Z,29.64
2023-09-06T13:42:25.172Z,29.74
2023-09-06T13:45:29.429Z,29.91
2023-09-06T13:48:33.456Z,29.82
2023-09-06T13:51:36.881Z,29.50
2023-09-06T13:54:39.681Z,29.93
2023-09-06T13:57:42.108Z,29.69
2023-09-06T14:00:44.978Z,29.69
2023-09-06T14:03:47.727Z,29.60
2023-09-06T14:06:50.520Z,29.35
2023-09-06T14:09:53.281Z,29.64
2023-09-06T14:12:55.692Z,29.68
2023-09-06T14:15:59.575Z,29.72
2023-09-06T14:19:02.110Z,29.62
2023-09-06T14:22:10.680Z,29.25
2023-09-06T14:25:13.326Z,29.19
2023-09-06T14:28:16.004Z,29.19
2023-09-06T14:31:18.511Z,29.16
2023-09-06T14:34:21.278Z,29.29
2023-09-06T14:37:23.693Z,29.06
2023-09-06T14:40:26.398Z,29.08
2023-09-06T14:43:29.338Z,28.94
2023-09-06T14:46:32.591Z,29.02
2023-09-06T14:49:35.129Z,28.83
2023-09-06T14:52:37.918Z,28.57
2023-09-06T14:55:40.363Z,28.44
2023-09-06T14:58:44.120Z,28.56
2023-09-06T15:01:46.757Z,28.56
2023-09-06T15:04:49.670Z,28.73
2023-09-06T15:07:52.051Z,28.52
2023-09-06T15:10:54.793Z,28.45
2023-09-06T15:13:57.251Z,28.50
2023-09-06T15:16:59.948Z,28.31
2023-09-06T15:20:11.891Z,28.29
2023-09-06T15:23:15.283Z,28.09
2023-09-06T15:26:19.150Z,28.11
2023-09-06T15:29:21.989Z,28.17
2023-09-06T15:32:25.808Z,28.14
2023-09-06T15:35:29.601Z,28.06
2023-09-06T15:38:32.197Z,27.88
2023-09-06T15:41:34.849Z,27.92
2023-09-06T15:44:37.982Z,27.87
2023-09-06T15:47:42.096Z,27.77
2023-09-06T15:50:44.798Z,27.71
2023-09-06T15:53:47.809Z,27.73
2023-09-06T15:56:51.062Z,27.64
2023-09-06T15:59:53.796Z,27.51
2023-09-06T16:02:56.600Z,27.45
2023-09-06T16:05:59.339Z,27.37
2023-09-06T16:09:02.723Z,27.34
2023-09-06T16:12:06.005Z,27.27
2023-09-06T16:15:09.994Z,27.27
2023-09-06T16:18:13.674Z,27.27
2023-09-06T16:21:16.137Z,27.21
2023-09-06T16:24:19.700Z,27.10
2023-09-06T16:27:23.208Z,27.01
2023-09-06T16:30:26.887Z,27.06
2023-09-06T16:33:33.545Z,27.00
2023-09-06T16:36:36.403Z,26.93
2023-09-06T16:39:41.170Z,26.90
2023-09-06T16:42:44.283Z,26.80
2023-09-06T16:45:47.730Z,26.80
2023-09-06T16:48:50.589Z,26.75
2023-09-06T16:51:53.243Z,26.68
2023-09-06T16:54:57.254Z,26.57
2023-09-06T16:57:59.860Z,26.56
2023-09-06T17:01:02.614Z,26.53
2023-09-06T17:04:06.250Z,26.46
2023-09-06T17:07:09.246Z,26.40
2023-09-06T17:10:11.910Z,26.34
2023-09-06T17:13:15.113Z,26.27
2023-09-06T17:16:21.622Z,26.20
2023-09-06T17:19:25.173Z,26.12
2023-09-06T17:22:27.585Z,25.99
2023-09-06T17:25:31.658Z,25.96
2023-09-06T17:28:37.459Z,25.86
2023-09-06T17:31:40.226Z,25.84
2023-09-06T17:34:42.748Z,25.72
2023-09-06T17:37:45.602Z,25.71
2023-09-06T17:40:53.277Z,25.64
2023-09-06T17:43:56.163Z,25.59
2023-09-06T17:47:02.748Z,25.52
2023-09-06T17:50:10.614Z,25.49
2023-09-06T17:53:18.546Z,25.37
2023-09-06T17:56:25.455Z,25.36
2023-09-06T17:59:28.904Z,25.30
2023-09-06T18:02:33.770Z,25.19
2023-09-06T18:05:39.282Z,25.17
2023-09-06T18:08:43.300Z,25.07
2023-09-06T18:11:47.090Z,25.08
2023-09-06T18:14:50.797Z,24.96
2023-09-06T18:17:53.707Z,24.98
2023-09-06T18:20:57.102Z,24.94
2023-09-06T18:24:04.458Z,24.91
2023-09-06T18:27:08.550Z,24.81
2023-09-06T18:30:11.967Z,24.69
2023-09-06T18:33:15.740Z,24.56
2023-09-06T18:36:18.697Z,24.53
2023-09-06T18:39:21.149Z,24.47
2023-09-06T18:42:23.851Z,24.38
2023-09-06T18:45:27.326Z,24.43
2023-09-06T18:48:30.391Z,24.37
2023-09-06T18:51:33.043Z,24.35
2023-09-06T18:54:37.488Z,24.22
2023-09-06T18:57:51.325Z,24.19
2023-09-06T19:01:02.934Z,24.07
2023-09-06T19:04:05.783Z,24.00
2023-09-06T19:07:08.557Z,23.94
2023-09-06T19:10:15.768Z,23.90
2023-09-06T19:13:19.493Z,23.91
2023-09-06T19:16:25.768Z,23.84
2023-09-06T19:19:33.830Z,23.81
2023-09-06T19:22:36.219Z,23.60
2023-09-06T19:25:44.185Z,23.60
2023-09-06T19:28:46.574Z,23.54
2023-09-06T19:31:51.890Z,23.40
2023-09-06T19:34:54.350Z,23.42
2023-09-06T19:37:57.135Z,23.33
2023-09-06T19:41:00.796Z,23.26
2023-09-06T19:44:03.727Z,23.22
2023-09-06T19:47:06.386Z,23.21
2023-09-06T19:50:09.410Z,23.21
2023-09-06T19:53:11.824Z,23.16
2023-09-06T19:56:18.194Z,23.14
2023-09-06T19:59:20.718Z,23.03
2023-09-06T20:02:23.733Z,22.95
2023-09-06T20:05:26.846Z,22.80
2023-09-06T20:08:29.458Z,22.86
2023-09-06T20:11:33.266Z,22.82
2023-09-06T20:14:35.701Z,22.75
2023-09-06T20:17:38.483Z,22.67
2023-09-06T20:20:41.352Z,22.64
2023-09-06T20:23:44.724Z,22.53
2023-09-06T20:26:47.193Z,22.42
2023-09-06T20:29:50.032Z,22.38
2023-09-06T20:32:52.587Z,22.34
2023-09-06T20:35:58.537Z,22.29
2023-09-06T20:39:01.247Z,22.30
2023-09-06T20:42:06.354Z,22.27
2023-09-06T20:45:09.061Z,22.23
2023-09-06T20:48:12.904Z,22.21
2023-09-06T20:51:15.585Z,22.19
2023-09-06T20:54:18.331Z,22.21
2023-09-06T20:57:20.824Z,22.16
2023-09-06T21:00:23.891Z,22.14
2023-09-06T21:03:26.518Z,22.05
2023-09-06T21:06:29.176Z,22.06
2023-09-06T21:09:31.561Z,22.07
2023-09-06T21:12:36.319Z,22.02
2023-09-06T21:15:39.047Z,21.97
2023-09-06T21:18:41.917Z,21.93
2023-09-06T21:21:44.351Z,21.90
2023-09-06T21:24:47.058Z,21.84
2023-09-06T21:27:49.539Z,21.78
2023-09-06T21:30:52.245Z,21.64
2023-09-06T21:33:54.713Z,21.68
2023-09-06T21:36:57.537Z,21.62
2023-09-06T21:40:00.696Z,21.60
2023-09-06T21:43:16.101Z,21.61
2023-09-06T21:46:20.565Z,21.60
2023-09-06T21:49:23.321Z,21.52
2023-09-06T21:52:25.741Z,21.46
2023-09-06T21:55:28.504Z,21.41
2023-09-06T21:58:34.621Z,21.40
2023-09-06T22:01:51.448Z,21.37
2023-09-06T22:05:12.172Z,21.27
2023-09-06T22:08:33.225Z,21.22
2023-09-06T22:11:54.584Z,21.08
2023-09-06T22:15:06.023Z,21.07
2023-09-06T22:18:08.485Z,20.97
2023-09-06T22:21:11.136Z,21.01
2023-09-06T22:24:13.821Z,20.93
2023-09-06T22:27:16.682Z,20.89
2023-09-06T22:30:19.432Z,20.89
2023-09-06T22:33:22.207Z,20.89
2023-09-06T22:36:25.358Z,20.88
2023-09-06T22:39:28.090Z,20.78
2023-09-06T22:42:30.457Z,20.74
2023-09-06T22:45:33.125Z,20.67
2023-09-06T22:48:53.306Z,20.62
2023-09-06T22:51:57.027Z,20.53
2023-09-06T22:54:59.573Z,20.40
2023-09-06T22:58:02.762Z,20.38
2023-09-06T23:01:08.724Z,20.32
2023-09-06T23:04:12.424Z,20.30
2023-09-06T23:07:16.461Z,20.20
2023-09-06T23:10:20.944Z,20.27
2023-09-06T23:13:23.831Z,20.17
2023-09-06T23:16:26.611Z,19.92
2023-09-06T23:19:33.577Z,19.85
2023-09-06T23:22:42.097Z,19.88
2023-09-06T23:25:51.353Z,19.74
2023-09-06T23:28:55.095Z,19.47
2023-09-06T23:32:00.454Z,19.55
2023-09-06T23:35:07.732Z,19.44
2023-09-06T23:38:10.817Z,19.43
2023-09-06T23:41:17.511Z,19.36
2023-09-06T23:44:20.588Z,19.20
2023-09-06T23:47:23.408Z,19.21
2023-09-06T23:50:28.017Z,19.05
2023-09-06T23:53:30.681Z,19.06
2023-09-06T23:56:32.993Z,19.06
2023-09-06T23:59:35.633Z,18.95
